sensor_id;sensor_type;location;lat;lon;timestamp;temperature;humidity
12049;DHT22;6085;49.452;8.502;2023-03-26T00:03:57;8.10;99.90
12049;DHT22;6085;49.452;8.502;2023-03-26T00:08:00;7.90;99.90
12049;DHT22;6085;49.452;8.502;2023-03-26T00:12:02;7.90;99.90
12049;DHT22;6085;49.452;8.502;2023-03-26T00:16:06;7.80;99.90
12049;DHT22;6085;49.452;8.502;2023-03-26T00:20:09;7.80;99.90
12049;DHT22;6085;49.452;8.502;2023-03-26T00:24:12;7.70;99.90
12049;DHT22;6085;49.452;8.502;2023-03-26T00:28:16;7.60;99.90
12049;DHT22;6085;49.452;8.502;2023-03-26T00:32:22;7.40;99.90
12049;DHT22;6085;49.452;8.502;2023-03-26T00:36:27;7.20;99.90
12049;DHT22;6085;49.452;8.502;2023-03-26T00:40:29;7.00;99.90
12049;DHT22;6085;49.452;8.502;2023-03-26T00:44:32;6.80;99.90
12049;DHT22;6085;49.452;8.502;2023-03-26T00:48:35;6.80;99.90
12049;DHT22;6085;49.452;8.502;2023-03-26T00:52:38;6.70;99.90
12049;DHT22;6085;49.452;8.502;2023-03-26T00:56:40;6.60;99.90
12049;DHT22;6085;49.452;8.502;2023-03-26T01:00:45;6.60;99.90
12049;DHT22;6085;49.452;8.502;2023-03-26T01:04:56;6.60;99.90
12049;DHT22;6085;49.452;8.502;2023-03-26T01:09:05;6.70;99.90
12049;DHT22;6085;49.452;8.502;2023-03-26T01:13:08;6.80;99.90
12049;DHT22;6085;49.452;8.502;2023-03-26T01:17:10;6.80;99.90
12049;DHT22;6085;49.452;8.502;2023-03-26T01:21:18;6.80;99.90
12049;DHT22;6085;49.452;8.502;2023-03-26T01:25:24;6.90;99.90
12049;DHT22;6085;49.452;8.502;2023-03-26T01:29:34;6.90;99.90
12049;DHT22;6085;49.452;8.502;2023-03-26T01:33:43;7.00;99.90
12049;DHT22;6085;49.452;8.502;2023-03-26T01:38:00;7.00;99.90
12049;DHT22;6085;49.452;8.502;2023-03-26T01:42:14;7.10;99.90
12049;DHT22;6085;49.452;8.502;2023-03-26T01:46:21;7.20;99.90
12049;DHT22;6085;49.452;8.502;2023-03-26T01:50:25;7.20;99.90
12049;DHT22;6085;49.452;8.502;2023-03-26T01:54:28;7.30;99.90
12049;DHT22;6085;49.452;8.502;2023-03-26T01:58:38;7.30;99.90
12049;DHT22;6085;49.452;8.502;2023-03-26T02:03:00;7.40;99.90
12049;DHT22;6085;49.452;8.502;2023-03-26T02:07:07;7.50;99.90
12049;DHT22;6085;49.452;8.502;2023-03-26T02:11:12;7.60;99.90
12049;DHT22;6085;49.452;8.502;2023-03-26T02:15:16;7.70;99.90
12049;DHT22;6085;49.452;8.502;2023-03-26T02:19:18;7.80;99.90
12049;DHT22;6085;49.452;8.502;2023-03-26T02:23:21;7.80;99.90
12049;DHT22;6085;49.452;8.502;2023-03-26T02:27:23;7.80;99.90
12049;DHT22;6085;49.452;8.502;2023-03-26T02:31:27;7.80;99.90
12049;DHT22;6085;49.452;8.502;2023-03-26T02:35:29;7.90;99.90
12049;DHT22;6085;49.452;8.502;2023-03-26T02:39:31;7.90;99.90
12049;DHT22;6085;49.452;8.502;2023-03-26T02:43:33;7.90;99.90
12049;DHT22;6085;49.452;8.502;2023-03-26T02:47:40;7.90;99.90
12049;DHT22;6085;49.452;8.502;2023-03-26T02:51:43;7.90;99.90
12049;DHT22;6085;49.452;8.502;2023-03-26T02:55:45;7.90;99.90
12049;DHT22;6085;49.452;8.502;2023-03-26T02:59:47;7.80;99.90
12049;DHT22;6085;49.452;8.502;2023-03-26T03:03:51;7.80;99.90
12049;DHT22;6085;49.452;8.502;2023-03-26T03:07:53;7.80;99.90
12049;DHT22;6085;49.452;8.502;2023-03-26T03:11:57;7.80;99.90
12049;DHT22;6085;49.452;8.502;2023-03-26T03:15:59;7.80;99.90
12049;DHT22;6085;49.452;8.502;2023-03-26T03:20:03;7.90;99.90
12049;DHT22;6085;49.452;8.502;2023-03-26T03:24:09;8.00;99.90
12049;DHT22;6085;49.452;8.502;2023-03-26T03:28:13;8.00;99.90
12049;DHT22;6085;49.452;8.502;2023-03-26T03:32:17;8.00;99.90
12049;DHT22;6085;49.452;8.502;2023-03-26T03:36:23;8.00;99.90
12049;DHT22;6085;49.452;8.502;2023-03-26T03:40:27;8.00;99.90
12049;DHT22;6085;49.452;8.502;2023-03-26T03:44:29;8.10;99.90
12049;DHT22;6085;49.452;8.502;2023-03-26T03:48:31;8.00;99.90
12049;DHT22;6085;49.452;8.502;2023-03-26T03:52:38;8.00;99.90
12049;DHT22;6085;49.452;8.502;2023-03-26T03:56:40;8.00;99.90
12049;DHT22;6085;49.452;8.502;2023-03-26T04:00:45;8.00;99.90
12049;DHT22;6085;49.452;8.502;2023-03-26T04:04:48;8.00;99.90
12049;DHT22;6085;49.452;8.502;2023-03-26T04:08:52;8.00;99.90
12049;DHT22;6085;49.452;8.502;2023-03-26T04:12:53;8.00;99.90
12049;DHT22;6085;49.452;8.502;2023-03-26T04:16:55;7.90;99.90
12049;DHT22;6085;49.452;8.502;2023-03-26T04:20:57;7.80;99.90
12049;DHT22;6085;49.452;8.502;2023-03-26T04:25:04;7.70;99.90
12049;DHT22;6085;49.452;8.502;2023-03-26T04:29:11;7.60;99.90
12049;DHT22;6085;49.452;8.502;2023-03-26T04:33:16;7.50;99.90
12049;DHT22;6085;49.452;8.502;2023-03-26T04:37:24;7.50;99.90
12049;DHT22;6085;49.452;8.502;2023-03-26T04:41:28;7.40;99.90
12049;DHT22;6085;49.452;8.502;2023-03-26T04:45:31;7.40;99.90
12049;DHT22;6085;49.452;8.502;2023-03-26T04:49:33;7.40;99.90
12049;DHT22;6085;49.452;8.502;2023-03-26T04:53:35;7.30;99.90
12049;DHT22;6085;49.452;8.502;2023-03-26T04:57:40;7.30;99.90
12049;DHT22;6085;49.452;8.502;2023-03-26T05:01:45;7.40;99.90
12049;DHT22;6085;49.452;8.502;2023-03-26T05:05:47;7.40;99.90
12049;DHT22;6085;49.452;8.502;2023-03-26T05:09:50;7.40;99.90
12049;DHT22;6085;49.452;8.502;2023-03-26T05:13:53;7.50;99.90
12049;DHT22;6085;49.452;8.502;2023-03-26T05:17:56;7.50;99.90
12049;DHT22;6085;49.452;8.502;2023-03-26T05:21:58;7.60;99.90
12049;DHT22;6085;49.452;8.502;2023-03-26T05:26:00;7.60;99.90
12049;DHT22;6085;49.452;8.502;2023-03-26T05:30:05;7.60;99.90
12049;DHT22;6085;49.452;8.502;2023-03-26T05:34:07;7.70;99.90
12049;DHT22;6085;49.452;8.502;2023-03-26T05:38:09;7.70;99.90
12049;DHT22;6085;49.452;8.502;2023-03-26T05:42:11;7.70;99.90
12049;DHT22;6085;49.452;8.502;2023-03-26T05:46:15;7.70;99.90
12049;DHT22;6085;49.452;8.502;2023-03-26T05:50:17;7.70;99.90
12049;DHT22;6085;49.452;8.502;2023-03-26T05:54:19;7.70;99.90
12049;DHT22;6085;49.452;8.502;2023-03-26T05:58:21;7.60;99.90
12049;DHT22;6085;49.452;8.502;2023-03-26T06:02:24;7.50;99.90
12049;DHT22;6085;49.452;8.502;2023-03-26T06:06:28;7.50;99.90
12049;DHT22;6085;49.452;8.502;2023-03-26T06:10:31;7.50;99.90
12049;DHT22;6085;49.452;8.502;2023-03-26T06:14:33;7.50;99.90
12049;DHT22;6085;49.452;8.502;2023-03-26T06:18:36;7.50;99.90
12049;DHT22;6085;49.452;8.502;2023-03-26T06:22:39;7.60;99.90
12049;DHT22;6085;49.452;8.502;2023-03-26T06:26:40;7.60;99.90
12049;DHT22;6085;49.452;8.502;2023-03-26T06:30:43;7.50;99.90
12049;DHT22;6085;49.452;8.502;2023-03-26T06:34:47;7.50;99.90
12049;DHT22;6085;49.452;8.502;2023-03-26T06:38:48;7.60;99.90
12049;DHT22;6085;49.452;8.502;2023-03-26T06:42:50;7.50;99.90
12049;DHT22;6085;49.452;8.502;2023-03-26T06:46:52;7.50;99.90
12049;DHT22;6085;49.452;8.502;2023-03-26T06:50:56;7.50;99.90
12049;DHT22;6085;49.452;8.502;2023-03-26T06:54:58;7.50;99.90
12049;DHT22;6085;49.452;8.502;2023-03-26T06:59:01;7.50;99.90
12049;DHT22;6085;49.452;8.502;2023-03-26T07:03:03;7.60;99.90
12049;DHT22;6085;49.452;8.502;2023-03-26T07:07:07;7.50;99.90
12049;DHT22;6085;49.452;8.502;2023-03-26T07:11:09;7.50;99.90
12049;DHT22;6085;49.452;8.502;2023-03-26T07:15:11;7.50;99.90
12049;DHT22;6085;49.452;8.502;2023-03-26T07:19:13;7.40;99.90
12049;DHT22;6085;49.452;8.502;2023-03-26T07:23:17;7.50;99.90
12049;DHT22;6085;49.452;8.502;2023-03-26T07:27:35;7.50;99.90
12049;DHT22;6085;49.452;8.502;2023-03-26T07:31:41;7.50;99.90
12049;DHT22;6085;49.452;8.502;2023-03-26T07:35:49;7.50;99.90
12049;DHT22;6085;49.452;8.502;2023-03-26T07:39:59;7.60;99.90
12049;DHT22;6085;49.452;8.502;2023-03-26T07:44:17;7.50;99.90
12049;DHT22;6085;49.452;8.502;2023-03-26T07:48:24;7.50;99.90
12049;DHT22;6085;49.452;8.502;2023-03-26T07:52:27;7.50;99.90
12049;DHT22;6085;49.452;8.502;2023-03-26T07:56:34;7.50;99.90
12049;DHT22;6085;49.452;8.502;2023-03-26T08:00:43;7.40;99.90
12049;DHT22;6085;49.452;8.502;2023-03-26T08:04:57;7.40;99.90
12049;DHT22;6085;49.452;8.502;2023-03-26T08:09:07;7.40;99.90
12049;DHT22;6085;49.452;8.502;2023-03-26T08:13:21;7.40;99.90
12049;DHT22;6085;49.452;8.502;2023-03-26T08:17:29;7.40;99.90
12049;DHT22;6085;49.452;8.502;2023-03-26T08:21:41;7.40;99.90
12049;DHT22;6085;49.452;8.502;2023-03-26T08:25:56;7.40;99.90
12049;DHT22;6085;49.452;8.502;2023-03-26T08:30:08;7.40;99.90
12049;DHT22;6085;49.452;8.502;2023-03-26T08:34:12;7.40;99.90
12049;DHT22;6085;49.452;8.502;2023-03-26T08:38:15;7.50;99.90
12049;DHT22;6085;49.452;8.502;2023-03-26T08:52:16;7.80;99.90
12049;DHT22;6085;49.452;8.502;2023-03-26T08:56:35;8.00;99.90
12049;DHT22;6085;49.452;8.502;2023-03-26T09:10:16;8.10;99.90
12049;DHT22;6085;49.452;8.502;2023-03-26T09:24:32;10.60;99.90
12049;DHT22;6085;49.452;8.502;2023-03-26T09:33:31;12.60;99.90
12049;DHT22;6085;49.452;8.502;2023-03-26T09:37:49;12.20;99.90
12049;DHT22;6085;49.452;8.502;2023-03-26T09:42:07;11.40;99.90
12049;DHT22;6085;49.452;8.502;2023-03-26T09:46:20;10.90;99.90
12049;DHT22;6085;49.452;8.502;2023-03-26T09:50:40;11.00;99.90
12049;DHT22;6085;49.452;8.502;2023-03-26T09:59:32;11.90;99.90
12049;DHT22;6085;49.452;8.502;2023-03-26T10:03:45;13.70;99.90
12049;DHT22;6085;49.452;8.502;2023-03-26T10:08:17;16.70;99.90
12049;DHT22;6085;49.452;8.502;2023-03-26T10:12:27;18.70;99.90
12049;DHT22;6085;49.452;8.502;2023-03-26T10:16:41;17.70;99.90
12049;DHT22;6085;49.452;8.502;2023-03-26T10:20:54;17.30;99.90
12049;DHT22;6085;49.452;8.502;2023-03-26T10:25:21;18.10;99.90
12049;DHT22;6085;49.452;8.502;2023-03-26T10:29:39;18.00;99.90
12049;DHT22;6085;49.452;8.502;2023-03-26T10:33:55;19.40;99.90
12049;DHT22;6085;49.452;8.502;2023-03-26T10:38:15;18.70;99.90
12049;DHT22;6085;49.452;8.502;2023-03-26T10:42:31;17.50;99.90
12049;DHT22;6085;49.452;8.502;2023-03-26T10:46:51;15.70;99.90
12049;DHT22;6085;49.452;8.502;2023-03-26T10:51:28;14.80;99.90
12049;DHT22;6085;49.452;8.502;2023-03-26T10:55:35;13.80;99.90
12049;DHT22;6085;49.452;8.502;2023-03-26T10:59:37;12.70;99.90
12049;DHT22;6085;49.452;8.502;2023-03-26T11:03:46;11.70;99.90
12049;DHT22;6085;49.452;8.502;2023-03-26T11:07:57;11.20;99.90
12049;DHT22;6085;49.452;8.502;2023-03-26T11:12:06;11.40;99.90
12049;DHT22;6085;49.452;8.502;2023-03-26T11:16:16;12.00;99.90
12049;DHT22;6085;49.452;8.502;2023-03-26T11:20:21;13.00;99.90
12049;DHT22;6085;49.452;8.502;2023-03-26T11:24:39;14.30;99.90
12049;DHT22;6085;49.452;8.502;2023-03-26T11:33:11;12.80;99.90
12049;DHT22;6085;49.452;8.502;2023-03-26T11:37:21;12.70;99.90
12049;DHT22;6085;49.452;8.502;2023-03-26T11:41:27;13.40;99.90
12049;DHT22;6085;49.452;8.502;2023-03-26T11:45:32;14.70;99.90
12049;DHT22;6085;49.452;8.502;2023-03-26T11:49:37;14.50;99.90
12049;DHT22;6085;49.452;8.502;2023-03-26T11:53:40;13.90;99.90
12049;DHT22;6085;49.452;8.502;2023-03-26T11:57:52;13.50;99.90
12049;DHT22;6085;49.452;8.502;2023-03-26T12:01:57;13.00;99.90
12049;DHT22;6085;49.452;8.502;2023-03-26T12:06:00;12.80;99.90
12049;DHT22;6085;49.452;8.502;2023-03-26T12:10:05;12.60;99.90
12049;DHT22;6085;49.452;8.502;2023-03-26T12:14:16;12.70;99.90
12049;DHT22;6085;49.452;8.502;2023-03-26T12:18:23;12.80;99.90
12049;DHT22;6085;49.452;8.502;2023-03-26T12:22:28;12.90;99.90
12049;DHT22;6085;49.452;8.502;2023-03-26T12:26:39;12.80;99.90
12049;DHT22;6085;49.452;8.502;2023-03-26T12:30:51;13.10;99.90
12049;DHT22;6085;49.452;8.502;2023-03-26T12:34:54;13.60;99.90
12049;DHT22;6085;49.452;8.502;2023-03-26T12:38:56;14.30;99.90
12049;DHT22;6085;49.452;8.502;2023-03-26T12:42:59;14.60;99.90
12049;DHT22;6085;49.452;8.502;2023-03-26T12:47:12;15.00;99.90
12049;DHT22;6085;49.452;8.502;2023-03-26T12:51:21;14.70;99.90
12049;DHT22;6085;49.452;8.502;2023-03-26T12:55:37;15.00;99.90
12049;DHT22;6085;49.452;8.502;2023-03-26T12:59:52;15.00;99.90
12049;DHT22;6085;49.452;8.502;2023-03-26T13:04:11;14.60;99.90
12049;DHT22;6085;49.452;8.502;2023-03-26T13:08:48;14.70;99.90
12049;DHT22;6085;49.452;8.502;2023-03-26T13:13:27;14.80;99.90
12049;DHT22;6085;49.452;8.502;2023-03-26T13:17:37;14.90;99.90
12049;DHT22;6085;49.452;8.502;2023-03-26T13:21:53;15.80;99.90
12049;DHT22;6085;49.452;8.502;2023-03-26T13:26:06;16.00;99.90
12049;DHT22;6085;49.452;8.502;2023-03-26T13:30:21;15.90;99.90
12049;DHT22;6085;49.452;8.502;2023-03-26T13:34:31;16.40;99.90
12049;DHT22;6085;49.452;8.502;2023-03-26T13:38:48;16.60;99.90
12049;DHT22;6085;49.452;8.502;2023-03-26T13:43:14;16.30;99.90
12049;DHT22;6085;49.452;8.502;2023-03-26T13:47:23;15.70;99.90
12049;DHT22;6085;49.452;8.502;2023-03-26T13:51:30;15.00;99.90
12049;DHT22;6085;49.452;8.502;2023-03-26T13:55:38;14.60;99.90
12049;DHT22;6085;49.452;8.502;2023-03-26T13:59:46;14.40;99.90
12049;DHT22;6085;49.452;8.502;2023-03-26T14:03:53;14.20;99.90
12049;DHT22;6085;49.452;8.502;2023-03-26T14:08:00;14.00;99.90
12049;DHT22;6085;49.452;8.502;2023-03-26T14:12:19;13.80;99.90
12049;DHT22;6085;49.452;8.502;2023-03-26T14:16:26;13.60;99.90
12049;DHT22;6085;49.452;8.502;2023-03-26T14:20:58;13.50;99.90
12049;DHT22;6085;49.452;8.502;2023-03-26T14:25:24;13.40;99.90
12049;DHT22;6085;49.452;8.502;2023-03-26T14:29:40;13.30;99.90
12049;DHT22;6085;49.452;8.502;2023-03-26T14:33:57;13.40;99.90
12049;DHT22;6085;49.452;8.502;2023-03-26T14:42:41;13.30;99.90
12049;DHT22;6085;49.452;8.502;2023-03-26T14:47:05;13.10;99.90
12049;DHT22;6085;49.452;8.502;2023-03-26T14:51:20;12.70;99.90
12049;DHT22;6085;49.452;8.502;2023-03-26T14:55:41;12.40;99.90
12049;DHT22;6085;49.452;8.502;2023-03-26T15:00:19;12.10;99.90
12049;DHT22;6085;49.452;8.502;2023-03-26T15:05:07;11.90;99.90
12049;DHT22;6085;49.452;8.502;2023-03-26T15:14:41;11.30;99.90
12049;DHT22;6085;49.452;8.502;2023-03-26T15:19:32;11.10;99.90
12049;DHT22;6085;49.452;8.502;2023-03-26T15:28:59;11.00;99.90
12049;DHT22;6085;49.452;8.502;2023-03-26T15:33:51;11.00;99.90
12049;DHT22;6085;49.452;8.502;2023-03-26T15:42:42;10.70;99.90
12049;DHT22;6085;49.452;8.502;2023-03-26T15:51:44;10.50;99.90
12049;DHT22;6085;49.452;8.502;2023-03-26T15:55:59;10.40;99.90
12049;DHT22;6085;49.452;8.502;2023-03-26T16:00:17;10.20;99.90
12049;DHT22;6085;49.452;8.502;2023-03-26T16:04:28;10.10;99.90
12049;DHT22;6085;49.452;8.502;2023-03-26T16:08:42;9.90;99.90
12049;DHT22;6085;49.452;8.502;2023-03-26T16:12:55;9.90;99.90
12049;DHT22;6085;49.452;8.502;2023-03-26T16:17:16;9.90;99.90
12049;DHT22;6085;49.452;8.502;2023-03-26T16:21:35;9.80;99.90
12049;DHT22;6085;49.452;8.502;2023-03-26T16:25:58;9.60;99.90
12049;DHT22;6085;49.452;8.502;2023-03-26T16:30:15;9.50;99.90
12049;DHT22;6085;49.452;8.502;2023-03-26T16:34:36;9.50;99.90
12049;DHT22;6085;49.452;8.502;2023-03-26T16:38:53;9.40;99.90
12049;DHT22;6085;49.452;8.502;2023-03-26T16:43:05;9.30;99.90
12049;DHT22;6085;49.452;8.502;2023-03-26T16:47:20;9.30;99.90
12049;DHT22;6085;49.452;8.502;2023-03-26T16:51:43;9.30;99.90
12049;DHT22;6085;49.452;8.502;2023-03-26T16:55:53;9.30;99.90
12049;DHT22;6085;49.452;8.502;2023-03-26T17:04:43;9.50;99.90
12049;DHT22;6085;49.452;8.502;2023-03-26T17:08:53;9.50;99.90
12049;DHT22;6085;49.452;8.502;2023-03-26T17:13:02;9.40;99.90
12049;DHT22;6085;49.452;8.502;2023-03-26T17:17:30;9.30;99.90
12049;DHT22;6085;49.452;8.502;2023-03-26T17:21:44;9.30;99.90
12049;DHT22;6085;49.452;8.502;2023-03-26T17:25:56;9.20;99.90
12049;DHT22;6085;49.452;8.502;2023-03-26T17:30:43;9.20;99.90
12049;DHT22;6085;49.452;8.502;2023-03-26T17:34:54;9.10;99.90
12049;DHT22;6085;49.452;8.502;2023-03-26T17:39:20;9.00;99.90
12049;DHT22;6085;49.452;8.502;2023-03-26T17:43:42;9.00;99.90
12049;DHT22;6085;49.452;8.502;2023-03-26T17:47:48;9.00;99.90
12049;DHT22;6085;49.452;8.502;2023-03-26T17:51:55;9.00;99.90
12049;DHT22;6085;49.452;8.502;2023-03-26T17:56:02;9.00;99.90
12049;DHT22;6085;49.452;8.502;2023-03-26T18:00:05;9.00;99.90
12049;DHT22;6085;49.452;8.502;2023-03-26T18:04:16;8.90;99.90
12049;DHT22;6085;49.452;8.502;2023-03-26T18:08:39;8.90;99.90
12049;DHT22;6085;49.452;8.502;2023-03-26T18:12:56;8.90;99.90
12049;DHT22;6085;49.452;8.502;2023-03-26T18:17:02;8.90;99.90
12049;DHT22;6085;49.452;8.502;2023-03-26T18:21:06;8.90;99.90
12049;DHT22;6085;49.452;8.502;2023-03-26T18:25:20;8.90;99.90
12049;DHT22;6085;49.452;8.502;2023-03-26T18:29:25;8.90;99.90
12049;DHT22;6085;49.452;8.502;2023-03-26T18:33:27;8.80;99.90
12049;DHT22;6085;49.452;8.502;2023-03-26T18:37:32;8.90;99.90
12049;DHT22;6085;49.452;8.502;2023-03-26T18:41:39;8.90;99.90
12049;DHT22;6085;49.452;8.502;2023-03-26T18:45:42;8.80;99.90
12049;DHT22;6085;49.452;8.502;2023-03-26T18:49:46;8.80;99.90
12049;DHT22;6085;49.452;8.502;2023-03-26T18:53:55;8.80;99.90
12049;DHT22;6085;49.452;8.502;2023-03-26T18:57:57;8.80;99.90
12049;DHT22;6085;49.452;8.502;2023-03-26T19:02:02;8.80;99.90
12049;DHT22;6085;49.452;8.502;2023-03-26T19:06:07;8.80;99.90
12049;DHT22;6085;49.452;8.502;2023-03-26T19:10:16;8.80;99.90
12049;DHT22;6085;49.452;8.502;2023-03-26T19:14:20;8.80;99.90
12049;DHT22;6085;49.452;8.502;2023-03-26T19:18:25;8.80;99.90
12049;DHT22;6085;49.452;8.502;2023-03-26T19:22:28;8.80;99.90
12049;DHT22;6085;49.452;8.502;2023-03-26T19:26:32;8.80;99.90
12049;DHT22;6085;49.452;8.502;2023-03-26T19:30:38;8.80;99.90
12049;DHT22;6085;49.452;8.502;2023-03-26T19:34:45;8.80;99.90
12049;DHT22;6085;49.452;8.502;2023-03-26T19:38:53;8.80;99.90
12049;DHT22;6085;49.452;8.502;2023-03-26T19:42:57;8.70;99.90
12049;DHT22;6085;49.452;8.502;2023-03-26T19:47:05;8.50;99.90
12049;DHT22;6085;49.452;8.502;2023-03-26T19:51:17;8.20;99.90
12049;DHT22;6085;49.452;8.502;2023-03-26T19:55:21;8.00;99.90
12049;DHT22;6085;49.452;8.502;2023-03-26T19:59:25;7.80;99.90
12049;DHT22;6085;49.452;8.502;2023-03-26T20:03:28;7.70;99.90
12049;DHT22;6085;49.452;8.502;2023-03-26T20:07:30;7.50;99.90
12049;DHT22;6085;49.452;8.502;2023-03-26T20:11:37;7.40;99.90
12049;DHT22;6085;49.452;8.502;2023-03-26T20:15:42;7.30;99.90
12049;DHT22;6085;49.452;8.502;2023-03-26T20:19:48;7.20;99.90
12049;DHT22;6085;49.452;8.502;2023-03-26T20:23:52;7.10;99.90
12049;DHT22;6085;49.452;8.502;2023-03-26T20:27:54;7.10;99.90
12049;DHT22;6085;49.452;8.502;2023-03-26T20:31:59;7.10;99.90
12049;DHT22;6085;49.452;8.502;2023-03-26T20:36:02;7.00;99.90
12049;DHT22;6085;49.452;8.502;2023-03-26T20:40:06;7.00;99.90
12049;DHT22;6085;49.452;8.502;2023-03-26T20:44:11;7.00;99.90
12049;DHT22;6085;49.452;8.502;2023-03-26T20:48:16;7.00;99.90
12049;DHT22;6085;49.452;8.502;2023-03-26T20:52:18;7.00;99.90
12049;DHT22;6085;49.452;8.502;2023-03-26T20:56:24;7.00;99.90
12049;DHT22;6085;49.452;8.502;2023-03-26T21:00:27;7.00;99.90
12049;DHT22;6085;49.452;8.502;2023-03-26T21:04:33;7.00;99.90
12049;DHT22;6085;49.452;8.502;2023-03-26T21:08:36;7.00;99.90
12049;DHT22;6085;49.452;8.502;2023-03-26T21:12:42;7.00;99.90
12049;DHT22;6085;49.452;8.502;2023-03-26T21:16:46;7.00;99.90
12049;DHT22;6085;49.452;8.502;2023-03-26T21:20:56;6.90;99.90
12049;DHT22;6085;49.452;8.502;2023-03-26T21:25:08;7.00;99.90
12049;DHT22;6085;49.452;8.502;2023-03-26T21:29:11;7.00;99.90
12049;DHT22;6085;49.452;8.502;2023-03-26T21:33:13;7.00;99.90
12049;DHT22;6085;49.452;8.502;2023-03-26T21:37:17;7.00;99.90
12049;DHT22;6085;49.452;8.502;2023-03-26T21:41:29;7.10;99.90
12049;DHT22;6085;49.452;8.502;2023-03-26T21:45:35;7.10;99.90
12049;DHT22;6085;49.452;8.502;2023-03-26T21:49:38;7.10;99.90
12049;DHT22;6085;49.452;8.502;2023-03-26T21:53:42;7.10;99.90
12049;DHT22;6085;49.452;8.502;2023-03-26T21:58:05;7.10;99.90
12049;DHT22;6085;49.452;8.502;2023-03-26T22:02:17;7.10;99.90
12049;DHT22;6085;49.452;8.502;2023-03-26T22:06:24;7.10;99.90
12049;DHT22;6085;49.452;8.502;2023-03-26T22:10:32;7.10;99.90
12049;DHT22;6085;49.452;8.502;2023-03-26T22:14:34;7.10;99.90
12049;DHT22;6085;49.452;8.502;2023-03-26T22:18:36;7.10;99.90
12049;DHT22;6085;49.452;8.502;2023-03-26T22:22:39;7.10;99.90
12049;DHT22;6085;49.452;8.502;2023-03-26T22:26:49;7.10;99.90
12049;DHT22;6085;49.452;8.502;2023-03-26T22:30:51;7.10;99.90
12049;DHT22;6085;49.452;8.502;2023-03-26T22:34:53;7.00;99.90
12049;DHT22;6085;49.452;8.502;2023-03-26T22:38:55;7.00;99.90
12049;DHT22;6085;49.452;8.502;2023-03-26T22:42:59;7.00;99.90
12049;DHT22;6085;49.452;8.502;2023-03-26T22:47:01;6.90;99.90
12049;DHT22;6085;49.452;8.502;2023-03-26T22:51:06;6.80;99.90
12049;DHT22;6085;49.452;8.502;2023-03-26T22:55:09;6.70;99.90
12049;DHT22;6085;49.452;8.502;2023-03-26T22:59:12;6.70;99.90
12049;DHT22;6085;49.452;8.502;2023-03-26T23:03:14;6.70;99.90
12049;DHT22;6085;49.452;8.502;2023-03-26T23:07:17;6.70;99.90
12049;DHT22;6085;49.452;8.502;2023-03-26T23:11:21;6.70;99.90
12049;DHT22;6085;49.452;8.502;2023-03-26T23:15:24;6.70;99.90
12049;DHT22;6085;49.452;8.502;2023-03-26T23:19:27;6.60;99.90
12049;DHT22;6085;49.452;8.502;2023-03-26T23:23:31;6.60;99.90
12049;DHT22;6085;49.452;8.502;2023-03-26T23:27:33;6.50;99.90
12049;DHT22;6085;49.452;8.502;2023-03-26T23:31:36;6.40;99.90
12049;DHT22;6085;49.452;8.502;2023-03-26T23:35:41;6.40;99.90
12049;DHT22;6085;49.452;8.502;2023-03-26T23:39:44;6.40;99.90
12049;DHT22;6085;49.452;8.502;2023-03-26T23:43:47;6.30;99.90
12049;DHT22;6085;49.452;8.502;2023-03-26T23:47:51;6.30;99.90
12049;DHT22;6085;49.452;8.502;2023-03-26T23:51:53;6.30;99.90
12049;DHT22;6085;49.452;8.502;2023-03-26T23:55:55;6.20;99.90
12049;DHT22;6085;49.452;8.502;2023-03-26T23:59:57;6.20;99.90
